Time;durP1;ratioP1;P1;durP2;ratioP2;P2;SDS_P1;SDS_P2;PMS_P1;PMS_P2;Temp;Humidity;BMP_temperature;BMP_pressure;BME280_temperature;BME280_humidity;BME280_pressure;Samples;Min_cycle;Max_cycle;Signal;HPM_P1;HPM_P2
2023/06/07 00:02:13;;;;;;;0.70;0.70;;;;;;;19.26;100.00;100358.41;5074383;28;20210;-73
2023/06/07 00:04:41;;;;;;;0.70;0.70;;;;;;;19.33;100.00;100355.69;5035501;28;20200;-73
2023/06/07 00:07:08;;;;;;;0.70;0.70;;;;;;;18.39;100.00;100265.09;5070565;28;20207;-73
2023/06/07 00:09:34;;;;;;;0.70;0.70;;;;;;;18.88;100.00;100358.09;5073380;28;20203;-73
2023/06/07 00:12:01;;;;;;;0.70;0.70;;;;;;;18.78;100.00;100351.25;5028317;28;20318;-73
2023/06/07 00:14:28;;;;;;;0.80;0.80;;;;;;;18.69;100.00;100356.66;5073978;28;20225;-73
2023/06/07 00:16:55;;;;;;;0.80;0.80;;;;;;;18.75;100.00;100348.66;5073365;28;20218;-73
2023/06/07 00:19:25;;;;;;;0.70;0.70;;;;;;;18.61;100.00;100324.34;5073582;28;20664;-73
2023/06/07 00:21:53;;;;;;;0.68;0.68;;;;;;;18.28;100.00;100273.13;5037325;28;20227;-73
2023/06/07 00:24:20;;;;;;;1.75;1.50;;;;;;;18.58;100.00;100342.78;5038466;28;20209;-73
2023/06/07 00:26:47;;;;;;;0.60;0.60;;;;;;;18.67;100.00;100348.78;5073455;28;20276;-73
2023/06/07 00:29:15;;;;;;;0.70;0.70;;;;;;;18.48;100.00;100335.91;5073769;28;20581;-72
2023/06/07 00:31:42;;;;;;;0.80;0.80;;;;;;;18.50;100.00;100344.59;5073839;28;20604;-72
2023/06/07 00:34:08;;;;;;;0.70;0.70;;;;;;;18.36;100.00;100347.41;5072213;28;20685;-73
2023/06/07 00:36:35;;;;;;;0.70;0.70;;;;;;;18.35;100.00;100340.41;5073928;28;20736;-73
2023/06/07 00:39:03;;;;;;;0.80;0.80;;;;;;;18.18;100.00;100321.38;5073881;28;20190;-73
2023/06/07 00:41:30;;;;;;;0.80;0.80;;;;;;;18.16;100.00;100337.13;5054759;28;20210;-72
2023/06/07 00:43:57;;;;;;;0.80;0.80;;;;;;;18.03;100.00;100332.03;5073569;28;20199;-74
2023/06/07 00:46:28;;;;;;;0.60;0.60;;;;;;;18.07;100.00;100325.88;5054982;28;20731;-73
2023/06/07 00:48:56;;;;;;;0.70;0.70;;;;;;;17.93;100.00;100328.66;5073255;28;20603;-73
2023/06/07 00:51:23;;;;;;;0.70;0.70;;;;;;;17.94;100.00;100321.66;5073633;28;20253;-73
2023/06/07 00:53:52;;;;;;;0.70;0.70;;;;;;;17.88;100.00;100321.72;5073316;28;20252;-73
2023/06/07 00:56:21;;;;;;;0.70;0.70;;;;;;;17.88;100.00;100333.09;5072728;28;20264;-73
2023/06/07 00:58:48;;;;;;;0.70;0.70;;;;;;;17.84;100.00;100327.00;5073306;28;20661;-73
2023/06/07 01:01:17;;;;;;;0.70;0.70;;;;;;;17.70;100.00;100301.78;5073087;28;20207;-73
2023/06/07 01:03:44;;;;;;;0.70;0.70;;;;;;;17.79;100.00;100320.06;5073095;28;20629;-73
2023/06/07 01:06:13;;;;;;;0.65;0.65;;;;;;;17.72;100.00;100307.91;5072888;28;20293;-73
2023/06/07 01:08:41;;;;;;;0.70;0.70;;;;;;;17.72;100.00;100316.66;5072923;28;20661;-73
2023/06/07 01:11:10;;;;;;;0.70;0.70;;;;;;;17.82;100.00;100320.03;5072814;28;20218;-73
2023/06/07 01:13:39;;;;;;;0.70;0.70;;;;;;;17.81;100.00;100316.53;5054511;28;20226;-73
2023/06/07 01:16:07;;;;;;;0.80;0.80;;;;;;;17.59;100.00;100314.16;5072647;28;20205;-73
2023/06/07 01:18:34;;;;;;;0.80;0.80;;;;;;;17.49;100.00;100308.09;5072651;28;20268;-74
2023/06/07 01:21:03;;;;;;;0.70;0.70;;;;;;;17.56;100.00;100320.28;5037910;28;20581;-72
2023/06/07 01:23:32;;;;;;;0.70;0.70;;;;;;;17.44;100.00;100295.94;5072038;28;20642;-72
2023/06/07 01:26:00;;;;;;;0.73;0.73;;;;;;;17.52;100.00;100312.44;5072694;28;20723;-74
2023/06/07 01:28:30;;;;;;;0.70;0.70;;;;;;;17.52;100.00;100318.56;5072404;28;20202;-72
2023/06/07 01:31:00;;;;;;;0.88;0.88;;;;;;;17.49;100.00;100310.72;5071304;28;20299;-72
2023/06/07 01:33:29;;;;;;;0.80;0.80;;;;;;;17.60;100.00;100323.75;5072735;28;20215;-72
2023/06/07 01:35:57;;;;;;;0.90;0.90;;;;;;;17.53;100.00;100319.41;5072240;28;20723;-73
2023/06/07 01:38:27;;;;;;;0.63;0.63;;;;;;;17.53;100.00;100316.81;5072105;28;20198;-73
2023/06/07 01:40:56;;;;;;;0.80;0.80;;;;;;;16.98;100.00;100232.59;5072302;28;20202;-73
2023/06/07 01:43:24;;;;;;;0.90;0.90;;;;;;;17.29;100.00;100308.28;5069134;28;20661;-73
2023/06/07 01:45:52;;;;;;;0.70;0.70;;;;;;;17.22;100.00;100292.63;5072447;28;20688;-73
2023/06/07 01:48:19;;;;;;;0.70;0.70;;;;;;;17.21;100.00;100275.16;5072447;28;20206;-73
2023/06/07 01:50:46;;;;;;;0.80;0.80;;;;;;;17.12;100.00;100281.34;5072310;28;20227;-73
2023/06/07 01:53:13;;;;;;;0.70;0.70;;;;;;;17.19;100.00;100309.22;5070949;28;20225;-74
2023/06/07 01:55:40;;;;;;;0.70;0.70;;;;;;;17.30;100.00;100296.91;5071901;28;20637;-73
2023/06/07 01:58:19;;;;;;;1.23;1.23;;;;;;;17.41;100.00;100293.34;5058005;28;20206;-73
2023/06/07 02:00:53;;;;;;;0.70;0.70;;;;;;;17.28;100.00;100274.22;5054418;28;20202;-73
2023/06/07 02:03:25;;;;;;;0.70;0.70;;;;;;;17.35;100.00;100295.13;5071631;28;20206;-73
2023/06/07 02:05:59;;;;;;;1.02;1.02;;;;;;;17.29;100.00;100289.94;5071947;28;20203;-73
2023/06/07 02:08:31;;;;;;;0.80;0.80;;;;;;;17.25;100.00;100282.13;5071951;28;20191;-73
2023/06/07 02:10:58;;;;;;;0.80;0.80;;;;;;;17.03;100.00;100260.47;5071943;28;20203;-73
2023/06/07 02:13:28;;;;;;;0.70;0.70;;;;;;;17.24;100.00;100293.47;5071499;28;20667;-73
2023/06/07 02:15:55;;;;;;;0.70;0.70;;;;;;;17.04;100.00;100284.91;5070163;28;20711;-73
2023/06/07 02:18:24;;;;;;;0.80;0.80;;;;;;;17.03;100.00;100286.66;5072201;28;20613;-73
2023/06/07 02:20:51;;;;;;;0.70;0.70;;;;;;;17.12;100.00;100288.34;5053509;28;20190;-73
2023/06/07 02:23:18;;;;;;;0.70;0.70;;;;;;;17.07;100.00;100293.63;5071568;28;20661;-73
2023/06/07 02:25:45;;;;;;;0.70;0.70;;;;;;;17.02;100.00;100292.78;5071244;28;20676;-73
2023/06/07 02:28:11;;;;;;;0.70;0.70;;;;;;;17.09;100.00;100299.69;5071824;28;20661;-73
2023/06/07 02:30:40;;;;;;;0.70;0.70;;;;;;;17.01;100.00;100292.81;5070180;28;20688;-73
2023/06/07 02:33:13;;;;;;;0.70;0.70;;;;;;;16.91;100.00;100297.22;5071626;28;20284;-73
2023/06/07 02:35:40;;;;;;;0.70;0.70;;;;;;;16.98;100.00;100284.97;5070732;28;20684;-74
2023/06/07 02:38:08;;;;;;;0.77;0.77;;;;;;;16.93;100.00;100290.25;5071437;28;20206;-73
2023/06/07 02:40:35;;;;;;;0.70;0.70;;;;;;;16.73;100.00;100260.72;5071145;28;20201;-73
2023/06/07 02:43:02;;;;;;;0.70;0.70;;;;;;;16.90;100.00;100289.41;5070982;28;20206;-73
2023/06/07 02:45:28;;;;;;;0.90;0.90;;;;;;;16.90;100.00;100290.25;5071559;28;20214;-73
2023/06/07 02:47:57;;;;;;;0.70;0.70;;;;;;;16.95;100.00;100267.50;5071469;28;20713;-73
2023/06/07 02:50:23;;;;;;;0.80;0.80;;;;;;;16.88;100.00;100271.06;5036074;28;20199;-73
2023/06/07 02:52:50;;;;;;;0.68;0.68;;;;;;;17.18;100.00;100304.88;5071534;28;20218;-74
2023/06/07 02:55:17;;;;;;;0.70;0.70;;;;;;;17.34;100.00;100298.63;5071038;28;20207;-73
2023/06/07 02:57:44;;;;;;;0.80;0.80;;;;;;;17.33;100.00;100302.16;5071528;28;20272;-74
2023/06/07 03:00:12;;;;;;;0.70;0.70;;;;;;;17.41;100.00;100301.22;5052843;28;20539;-74
2023/06/07 03:02:39;;;;;;;1.65;1.13;;;;;;;17.31;100.00;100306.50;5070658;28;20738;-74
2023/06/07 03:05:08;;;;;;;1.15;1.15;;;;;;;17.48;100.00;100303.72;5075144;28;20718;-73
2023/06/07 03:07:35;;;;;;;0.70;0.70;;;;;;;17.37;100.00;100304.72;5075095;28;20264;-74
2023/06/07 03:10:02;;;;;;;0.73;0.73;;;;;;;17.62;100.00;100303.66;5056681;28;20285;-73
2023/06/07 03:12:29;;;;;;;0.90;0.90;;;;;;;17.62;100.00;100309.75;5074898;28;20222;-74
2023/06/07 03:14:56;;;;;;;0.80;0.80;;;;;;;17.71;100.00;100319.28;5075046;28;20637;-73
2023/06/07 03:17:23;;;;;;;0.80;0.80;;;;;;;17.87;100.00;100310.38;5075327;28;20250;-74
2023/06/07 03:19:50;;;;;;;0.70;0.70;;;;;;;17.81;100.00;100316.53;5074706;28;20591;-73
2023/06/07 03:22:21;;;;;;;0.70;0.70;;;;;;;17.70;100.00;100286.06;5075283;28;20199;-73
2023/06/07 03:24:49;;;;;;;0.70;0.70;;;;;;;17.56;100.00;100238.09;5074717;28;20225;-72
2023/06/07 03:27:17;;;;;;;0.70;0.70;;;;;;;17.76;100.00;100301.75;5075135;28;20256;-73
2023/06/07 03:29:44;;;;;;;0.70;0.70;;;;;;;17.77;100.00;100322.69;5074604;28;20614;-73
2023/06/07 03:32:11;;;;;;;0.77;0.77;;;;;;;17.38;100.00;100241.78;5074323;28;20229;-73
2023/06/07 03:34:41;;;;;;;0.70;0.70;;;;;;;17.74;100.00;100308.75;5071950;28;20653;-72
2023/06/07 03:37:08;;;;;;;0.70;0.70;;;;;;;17.93;100.00;100331.28;5052295;28;20206;-74
2023/06/07 03:39:36;;;;;;;0.70;0.70;;;;;;;17.70;100.00;100328.03;5074684;28;20241;-72
2023/06/07 03:42:04;;;;;;;0.70;0.70;;;;;;;17.34;100.00;100324.81;5074631;28;20225;-75
2023/06/07 03:44:30;;;;;;;0.70;0.70;;;;;;;16.57;100.00;100239.00;5040360;28;20195;-74
2023/06/07 03:46:57;;;;;;;0.80;0.80;;;;;;;16.95;100.00;100293.69;5074272;28;20199;-73
2023/06/07 03:49:24;;;;;;;0.80;0.80;;;;;;;17.25;100.00;100311.81;5073951;28;20658;-72
2023/06/07 03:51:51;;;;;;;0.70;0.70;;;;;;;17.33;100.00;100323.13;5074235;28;20198;-72
2023/06/07 03:54:17;;;;;;;0.80;0.80;;;;;;;17.84;100.00;100315.63;5073764;28;20214;-72
2023/06/07 03:56:46;;;;;;;0.70;0.70;;;;;;;18.20;100.00;100324.84;5073745;28;20225;-74
2023/06/07 03:59:13;;;;;;;0.70;0.70;;;;;;;18.40;100.00;100328.09;5074143;28;20201;-73
2023/06/07 04:01:40;;;;;;;0.70;0.70;;;;;;;18.38;100.00;100324.63;5073940;28;20231;-73
2023/06/07 04:04:07;;;;;;;0.70;0.70;;;;;;;18.30;100.00;100322.09;5073965;28;20252;-74
2023/06/07 04:06:34;;;;;;;0.75;0.75;;;;;;;17.81;100.00;100273.69;5074082;28;20769;-74
2023/06/07 04:09:02;;;;;;;0.65;0.65;;;;;;;18.04;100.00;100308.44;5074263;28;20213;-74
2023/06/07 04:11:29;;;;;;;0.70;0.70;;;;;;;18.40;100.00;100321.97;5073577;28;20737;-73
2023/06/07 04:13:57;;;;;;;0.60;0.60;;;;;;;18.60;100.00;100326.09;5071813;28;20284;-74
2023/06/07 04:16:24;;;;;;;0.70;0.70;;;;;;;18.53;100.00;100334.09;5071687;28;20206;-73
2023/06/07 04:18:51;;;;;;;0.60;0.60;;;;;;;18.49;100.00;100306.97;5074161;28;20276;-74
2023/06/07 04:21:18;;;;;;;0.60;0.60;;;;;;;18.56;100.00;100318.28;5073848;28;20207;-74
2023/06/07 04:23:45;;;;;;;0.63;0.63;;;;;;;19.02;100.00;100340.38;5073835;28;20604;-74
2023/06/07 04:26:11;;;;;;;0.70;0.70;;;;;;;19.07;100.00;100328.03;5073552;28;20194;-75
2023/06/07 04:28:40;;;;;;;0.70;0.70;;;;;;;19.82;100.00;100345.22;5073062;28;20210;-73
2023/06/07 04:31:09;;;;;;;0.70;0.70;;;;;;;20.18;100.00;100347.16;5073770;28;20239;-73
2023/06/07 04:33:35;;;;;;;0.70;0.70;;;;;;;20.82;100.00;100341.41;5073104;28;20226;-73
2023/06/07 04:36:02;;;;;;;0.70;0.70;;;;;;;21.71;100.00;100338.38;5060768;28;20202;-72
2023/06/07 04:38:29;;;;;;;0.90;0.90;;;;;;;22.12;100.00;100361.03;5062554;28;20282;-72
2023/06/07 04:40:57;;;;;;;0.60;0.60;;;;;;;22.09;100.00;100314.44;5069629;28;20286;-73
2023/06/07 04:43:23;;;;;;;0.80;0.80;;;;;;;22.67;100.00;100366.50;5061550;28;20708;-73
2023/06/07 04:45:54;;;;;;;0.70;0.70;;;;;;;22.78;100.00;100365.31;5071169;28;20213;-73
2023/06/07 04:48:25;;;;;;;0.70;0.70;;;;;;;23.27;100.00;100372.56;5071482;28;20301;-73
2023/06/07 04:50:52;;;;;;;0.70;0.70;;;;;;;23.28;100.00;100364.59;5069768;28;20230;-73
2023/06/07 04:53:20;;;;;;;0.75;0.75;;;;;;;23.68;95.95;100370.34;5067145;28;20237;-73
2023/06/07 04:55:48;;;;;;;0.70;0.70;;;;;;;23.75;93.58;100344.53;5069849;28;20198;-73
2023/06/07 04:58:16;;;;;;;0.70;0.70;;;;;;;24.27;93.18;100370.03;5061574;28;20231;-72
2023/06/07 05:00:43;;;;;;;0.70;0.70;;;;;;;23.96;91.03;100361.44;5071617;28;20226;-72
2023/06/07 05:03:13;;;;;;;0.80;0.80;;;;;;;24.29;91.80;100372.66;5064650;28;20194;-73
2023/06/07 05:05:41;;;;;;;0.70;0.70;;;;;;;23.28;94.65;100298.44;5062791;28;20205;-73
2023/06/07 05:08:08;;;;;;;0.80;0.80;;;;;;;22.68;99.46;100340.94;5052568;28;20199;-73
2023/06/07 05:10:35;;;;;;;0.70;0.70;;;;;;;22.46;100.00;100376.81;5060918;28;20240;-75
2023/06/07 05:13:02;;;;;;;0.70;0.70;;;;;;;21.94;100.00;100372.97;5072364;28;20223;-75
2023/06/07 05:15:30;;;;;;;0.70;0.70;;;;;;;21.90;100.00;100373.97;5072307;28;20262;-73
2023/06/07 05:17:58;;;;;;;2.30;1.50;;;;;;;22.47;100.00;100378.56;5071757;28;20191;-74
2023/06/07 05:20:26;;;;;;;0.80;0.80;;;;;;;22.33;100.00;100368.34;5060400;28;20206;-73
2023/06/07 05:22:54;;;;;;;0.70;0.70;;;;;;;22.52;100.00;100377.50;5051687;28;20211;-72
2023/06/07 05:25:21;;;;;;;0.70;0.70;;;;;;;22.34;100.00;100371.88;5058892;28;20208;-73
2023/06/07 05:27:49;;;;;;;0.70;0.70;;;;;;;22.78;100.00;100378.53;5052676;28;20196;-75
2023/06/07 05:30:17;;;;;;;0.70;0.70;;;;;;;22.49;100.00;100369.66;5051368;28;20239;-75
2023/06/07 05:32:44;;;;;;;0.70;0.70;;;;;;;21.69;100.00;100356.00;5052805;28;20292;-72
2023/06/07 05:35:11;;;;;;;0.65;0.65;;;;;;;21.93;100.00;100380.94;5043084;28;20741;-71
2023/06/07 05:37:38;;;;;;;0.60;0.60;;;;;;;22.80;100.00;100382.84;5064032;28;20647;-72
2023/06/07 05:40:08;;;;;;;0.70;0.70;;;;;;;23.73;99.30;100388.72;5046890;28;20203;-71
2023/06/07 05:42:38;;;;;;;0.60;0.60;;;;;;;24.17;95.23;100393.38;5058121;28;20203;-72
2023/06/07 05:45:06;;;;;;;0.80;0.80;;;;;;;24.33;90.76;100376.94;5063311;28;20202;-72
2023/06/07 05:47:33;;;;;;;0.65;0.65;;;;;;;23.06;100.00;100384.72;5071217;28;20289;-73
2023/06/07 05:50:00;;;;;;;0.75;0.75;;;;;;;23.43;98.45;100395.03;5071309;28;20253;-73
2023/06/07 05:52:27;;;;;;;0.70;0.70;;;;;;;23.75;95.40;100384.25;5071136;28;20750;-73
2023/06/07 05:54:55;;;;;;;0.70;0.70;;;;;;;24.36;92.11;100379.47;5071539;28;20357;-73
2023/06/07 05:57:23;;;;;;;0.60;0.60;;;;;;;24.88;90.13;100383.69;5071191;28;20731;-73
2023/06/07 05:59:50;;;;;;;0.63;0.63;;;;;;;24.96;83.89;100390.44;5036046;28;20234;-73
2023/06/07 06:02:20;;;;;;;0.80;0.80;;;;;;;24.88;84.38;100394.28;5071234;28;20229;-73
2023/06/07 06:04:47;;;;;;;0.70;0.70;;;;;;;24.85;85.04;100395.28;5036815;28;20229;-73
2023/06/07 06:07:13;;;;;;;0.70;0.70;;;;;;;25.29;80.58;100404.16;5070495;28;20779;-73
2023/06/07 06:09:41;;;;;;;0.70;0.70;;;;;;;25.63;77.92;100411.63;5071451;28;20275;-73
2023/06/07 06:12:09;;;;;;;0.70;0.70;;;;;;;25.82;74.90;100407.28;5068572;28;20214;-73
2023/06/07 06:14:38;;;;;;;0.70;0.70;;;;;;;26.65;71.04;100405.38;5070905;28;20667;-73
2023/06/07 06:17:05;;;;;;;0.70;0.70;;;;;;;25.98;69.61;100396.84;5070721;28;20265;-72
2023/06/07 06:19:32;;;;;;;0.80;0.80;;;;;;;26.02;70.97;100419.72;5035453;28;20203;-73
2023/06/07 06:21:58;;;;;;;0.70;0.70;;;;;;;25.32;75.15;100395.22;5070992;28;20215;-73
2023/06/07 06:24:25;;;;;;;0.70;0.70;;;;;;;25.51;75.13;100413.00;5066828;28;20265;-73
2023/06/07 06:26:52;;;;;;;0.60;0.60;;;;;;;25.54;75.48;100420.00;5060126;28;20211;-72
2023/06/07 06:29:18;;;;;;;0.70;0.70;;;;;;;25.20;75.64;100411.63;5070525;28;20242;-72
2023/06/07 06:31:47;;;;;;;0.80;0.80;;;;;;;25.18;77.24;100420.50;5070761;28;20199;-73
2023/06/07 06:34:13;;;;;;;0.75;0.75;;;;;;;24.58;78.89;100413.06;5035222;28;20226;-73
2023/06/07 06:36:40;;;;;;;0.80;0.80;;;;;;;24.41;80.92;100419.91;5070514;28;20198;-73
2023/06/07 06:39:08;;;;;;;0.70;0.70;;;;;;;24.57;82.31;100421.97;5070371;28;20199;-71
2023/06/07 06:41:35;;;;;;;0.70;0.70;;;;;;;23.91;81.45;100425.16;5070228;28;20234;-71
2023/06/07 06:44:02;;;;;;;0.80;0.80;;;;;;;23.47;87.33;100416.03;5071031;28;20340;-71
2023/06/07 06:46:28;;;;;;;0.80;0.80;;;;;;;23.54;86.88;100424.69;5070429;28;20195;-72
2023/06/07 06:48:56;;;;;;;0.70;0.70;;;;;;;23.21;91.48;100421.28;5070662;28;20256;-71
2023/06/07 06:51:23;;;;;;;0.90;0.90;;;;;;;23.27;90.16;100420.22;5070985;28;20199;-72
2023/06/07 06:53:50;;;;;;;0.60;0.60;;;;;;;23.00;90.93;100417.53;5070821;28;20223;-71
2023/06/07 06:56:17;;;;;;;0.73;0.73;;;;;;;22.93;92.29;100415.97;5070970;28;20213;-71
2023/06/07 06:58:43;;;;;;;0.70;0.70;;;;;;;23.23;90.56;100415.03;5070803;28;20203;-72
2023/06/07 07:01:13;;;;;;;0.60;0.60;;;;;;;23.54;89.25;100419.38;5070430;28;20199;-72
2023/06/07 07:03:41;;;;;;;0.70;0.70;;;;;;;23.66;87.68;100418.97;5070668;28;20769;-72
2023/06/07 07:06:09;;;;;;;0.70;0.70;;;;;;;24.08;85.08;100411.31;5070325;28;20242;-71
2023/06/07 07:08:36;;;;;;;0.70;0.70;;;;;;;23.86;85.06;100411.22;5071060;28;20208;-72
2023/06/07 07:11:03;;;;;;;0.80;0.80;;;;;;;23.68;87.09;100417.16;5070554;28;20669;-72
2023/06/07 07:13:30;;;;;;;0.70;0.70;;;;;;;23.56;86.59;100412.25;5070448;28;20611;-72
2023/06/07 07:15:57;;;;;;;0.70;0.70;;;;;;;23.68;85.87;100415.38;5070324;28;20199;-72
2023/06/07 07:18:24;;;;;;;0.80;0.80;;;;;;;23.83;83.67;100405.19;5070700;28;20203;-72
2023/06/07 07:20:50;;;;;;;0.77;0.77;;;;;;;23.34;83.75;100411.16;5070450;28;20203;-73
2023/06/07 07:23:19;;;;;;;0.80;0.80;;;;;;;23.51;83.82;100414.16;5070410;28;20743;-72
2023/06/07 07:25:45;;;;;;;0.85;0.85;;;;;;;23.66;84.36;100413.66;5035193;28;20202;-72
2023/06/07 07:28:12;;;;;;;0.70;0.70;;;;;;;23.82;80.14;100403.44;5070073;28;20661;-71
2023/06/07 07:30:39;;;;;;;0.73;0.73;;;;;;;23.99;81.65;100396.63;5035104;28;20219;-71
2023/06/07 07:33:06;;;;;;;0.70;0.70;;;;;;;24.00;81.89;100402.81;5070198;28;20211;-71
2023/06/07 07:35:33;;;;;;;0.70;0.70;;;;;;;24.29;81.40;100405.34;5070412;28;20704;-71
2023/06/07 07:38:01;;;;;;;0.80;0.80;;;;;;;24.19;78.92;100402.13;5051285;28;20203;-73
2023/06/07 07:40:30;;;;;;;0.90;0.90;;;;;;;24.26;77.46;100389.50;5070274;28;20242;-73
2023/06/07 07:42:56;;;;;;;0.80;0.80;;;;;;;24.26;78.18;100388.69;5034714;28;20230;-71
2023/06/07 07:45:23;;;;;;;0.90;0.90;;;;;;;24.43;73.25;100402.19;5070462;28;20210;-72
2023/06/07 07:47:50;;;;;;;0.60;0.60;;;;;;;23.95;69.69;100394.13;5069940;28;20198;-72
2023/06/07 07:50:17;;;;;;;0.70;0.70;;;;;;;24.14;70.97;100416.47;5036041;28;20199;-71
2023/06/07 07:52:44;;;;;;;0.60;0.60;;;;;;;24.22;70.06;100379.09;5073980;28;20289;-72
2023/06/07 07:55:11;;;;;;;0.70;0.70;;;;;;;24.69;69.86;100410.00;5073849;28;20222;-71
2023/06/07 07:57:39;;;;;;;0.85;0.85;;;;;;;24.62;71.44;100413.81;5038902;28;20226;-71
2023/06/07 08:00:10;;;;;;;0.60;0.60;;;;;;;24.89;68.71;100415.47;5074384;28;20210;-72
2023/06/07 08:02:37;;;;;;;0.70;0.70;;;;;;;25.05;67.23;100398.03;5039975;28;20202;-71
2023/06/07 08:05:05;;;;;;;0.70;0.70;;;;;;;25.08;66.22;100402.34;5074162;28;20211;-71
2023/06/07 08:07:32;;;;;;;0.70;0.70;;;;;;;25.29;63.31;100409.47;5039518;28;20194;-72
2023/06/07 08:09:59;;;;;;;0.60;0.60;;;;;;;25.48;63.46;100412.22;5073901;28;20210;-72
2023/06/07 08:12:26;;;;;;;0.60;0.60;;;;;;;25.36;62.03;100402.13;5074192;28;20219;-72
2023/06/07 08:14:54;;;;;;;0.70;0.70;;;;;;;25.37;62.61;100410.00;5074116;28;20234;-71
2023/06/07 08:17:20;;;;;;;0.65;0.65;;;;;;;25.52;60.32;100411.22;5073978;28;20206;-71
2023/06/07 08:19:48;;;;;;;0.70;0.70;;;;;;;25.49;60.86;100409.53;5073842;28;20685;-71
2023/06/07 08:22:14;;;;;;;0.80;0.80;;;;;;;25.54;58.88;100407.56;5073904;28;20210;-71
2023/06/07 08:24:41;;;;;;;0.98;0.98;;;;;;;25.69;58.04;100406.06;5073677;28;20198;-72
2023/06/07 08:27:08;;;;;;;0.70;0.70;;;;;;;25.39;59.91;100386.06;5073906;28;20202;-71
2023/06/07 08:29:35;;;;;;;0.70;0.70;;;;;;;25.73;59.39;100402.34;5073342;28;20751;-71
2023/06/07 08:32:03;;;;;;;0.60;0.60;;;;;;;25.61;58.70;100408.19;5073694;28;20202;-71
2023/06/07 08:34:31;;;;;;;0.80;0.80;;;;;;;25.71;59.83;100408.66;5073566;28;20226;-72
2023/06/07 08:36:58;;;;;;;0.80;0.80;;;;;;;25.75;57.24;100405.84;5073527;28;20222;-71
2023/06/07 08:39:25;;;;;;;0.60;0.60;;;;;;;25.90;57.04;100399.84;5073417;28;20202;-71
2023/06/07 08:41:52;;;;;;;0.60;0.60;;;;;;;25.71;56.07;100358.19;5073683;28;20207;-71
2023/06/07 08:44:18;;;;;;;0.73;0.73;;;;;;;26.03;56.75;100390.44;5073299;28;20199;-71
2023/06/07 08:46:48;;;;;;;0.80;0.80;;;;;;;25.80;55.80;100400.28;5073555;28;20199;-72
2023/06/07 08:49:17;;;;;;;0.60;0.60;;;;;;;25.99;56.65;100404.78;5038691;28;20285;-70
2023/06/07 08:51:46;;;;;;;0.70;0.70;;;;;;;25.93;55.16;100389.09;5073077;28;20199;-71
2023/06/07 08:54:16;;;;;;;0.70;0.70;;;;;;;25.95;54.71;100405.84;5073295;28;20234;-71
2023/06/07 08:56:45;;;;;;;1.15;1.15;;;;;;;25.93;55.10;100399.72;5073342;28;20195;-70
2023/06/07 08:59:13;;;;;;;0.60;0.60;;;;;;;26.15;55.87;100397.84;5073096;28;20201;-71
2023/06/07 09:01:40;;;;;;;0.70;0.70;;;;;;;26.10;53.91;100391.88;5037487;28;20210;-71
2023/06/07 09:04:08;;;;;;;0.80;0.80;;;;;;;26.09;53.72;100352.94;5072953;28;20198;-72
2023/06/07 09:06:36;;;;;;;0.70;0.70;;;;;;;26.02;50.35;100401.97;5073267;28;20203;-72
2023/06/07 09:09:04;;;;;;;0.90;0.90;;;;;;;25.92;52.05;100386.50;5070416;28;20206;-70
2023/06/07 09:11:31;;;;;;;0.70;0.70;;;;;;;26.15;53.83;100381.03;5050457;28;20207;-71
2023/06/07 09:13:58;;;;;;;0.90;0.90;;;;;;;26.37;53.11;100387.16;5063550;28;20276;-70
2023/06/07 09:16:25;;;;;;;0.80;0.80;;;;;;;26.18;50.34;100399.56;5072639;28;20271;-70
2023/06/07 09:18:54;;;;;;;0.60;0.60;;;;;;;26.56;52.62;100392.53;5037089;28;20260;-71
2023/06/07 09:21:23;;;;;;;0.70;0.70;;;;;;;26.14;51.83;100324.38;5058373;28;20203;-70
2023/06/07 09:23:51;;;;;;;0.70;0.70;;;;;;;26.86;52.56;100393.78;5060805;28;20273;-71
2023/06/07 09:26:20;;;;;;;0.80;0.80;;;;;;;26.79;51.47;100386.16;5052365;28;20200;-72
2023/06/07 09:28:47;;;;;;;0.60;0.60;;;;;;;26.92;50.73;100388.19;5024069;28;20253;-78
2023/06/07 09:31:28;;;;;;;0.70;0.70;;;;;;;27.02;49.58;100372.63;5068584;28;20238;-72
2023/06/07 09:33:55;;;;;;;0.57;0.57;;;;;;;26.68;49.78;100389.31;5072558;28;20203;-73
2023/06/07 09:36:22;;;;;;;0.70;0.70;;;;;;;27.06;50.54;100392.84;5058577;28;20207;-73
2023/06/07 09:38:50;;;;;;;0.70;0.70;;;;;;;27.27;48.70;100390.94;5072045;28;20214;-71
2023/06/07 09:41:17;;;;;;;0.60;0.60;;;;;;;27.27;47.62;100390.94;5072271;28;20203;-71
2023/06/07 09:43:47;;;;;;;1.30;1.27;;;;;;;27.02;46.78;100352.19;5065134;28;20289;-72
2023/06/07 09:46:14;;;;;;;0.70;0.70;;;;;;;26.80;47.64;100394.03;5065590;28;20226;-71
2023/06/07 09:48:46;;;;;;;0.70;0.70;;;;;;;27.31;49.23;100400.53;5071696;28;20198;-71
2023/06/07 09:51:13;;;;;;;0.70;0.70;;;;;;;27.15;47.78;100399.56;5071939;28;20652;-71
2023/06/07 09:54:00;;;;;;;0.68;0.68;;;;;;;26.98;45.64;100395.88;5071712;28;20211;-71
2023/06/07 09:56:28;;;;;;;0.80;0.80;;;;;;;26.85;46.33;100386.75;5037668;28;20203;-71
2023/06/07 09:59:07;;;;;;;0.70;0.70;;;;;;;27.26;46.45;100397.19;5057527;28;20195;-70
2023/06/07 10:01:37;;;;;;;0.70;0.70;;;;;;;27.34;47.90;100395.91;5071837;28;20658;-70
2023/06/07 10:04:05;;;;;;;0.70;0.70;;;;;;;27.50;43.80;100386.25;5069982;28;20206;-71
2023/06/07 10:06:34;;;;;;;1.58;1.23;;;;;;;27.77;44.83;100384.00;5071651;28;20203;-72
2023/06/07 10:09:04;;;;;;;0.68;0.68;;;;;;;27.53;43.83;100395.91;5071326;28;21041;-70
2023/06/07 10:11:32;;;;;;;0.70;0.70;;;;;;;27.41;44.03;100396.47;5071914;28;20237;-70
2023/06/07 10:14:05;;;;;;;0.70;0.70;;;;;;;27.94;44.20;100391.13;5070908;28;20238;-71
2023/06/07 10:16:36;;;;;;;0.80;0.80;;;;;;;27.70;43.89;100382.59;5071765;28;20230;-71
2023/06/07 10:19:09;;;;;;;0.70;0.70;;;;;;;27.98;43.74;100377.56;5071679;28;20237;-72
2023/06/07 10:21:41;;;;;;;0.68;0.68;;;;;;;27.98;43.45;100382.91;5071840;28;20206;-72
2023/06/07 10:24:13;;;;;;;0.63;0.63;;;;;;;27.84;43.03;100369.41;5071592;28;20202;-72
2023/06/07 10:26:50;;;;;;;0.68;0.68;;;;;;;28.00;43.50;100374.84;5071608;28;20289;-71
2023/06/07 10:29:23;;;;;;;0.63;0.63;;;;;;;27.68;42.45;100379.16;5071593;28;20237;-72
2023/06/07 10:31:59;;;;;;;0.60;0.60;;;;;;;27.69;44.77;100364.00;5071599;28;20225;-82
2023/06/07 10:34:29;;;;;;;0.77;0.77;;;;;;;27.63;44.70;100385.63;5071396;28;20639;-78
2023/06/07 10:36:58;;;;;;;0.60;0.60;;;;;;;27.46;44.88;100378.50;5071694;28;20203;-74
2023/06/07 10:39:26;;;;;;;0.85;0.85;;;;;;;27.59;46.06;100384.94;5071486;28;20210;-71
2023/06/07 10:41:53;;;;;;;0.70;0.70;;;;;;;27.63;45.39;100383.84;5071466;28;20252;-71
2023/06/07 10:44:20;;;;;;;0.60;0.60;;;;;;;27.63;45.41;100378.50;5071325;28;20203;-72
2023/06/07 10:46:47;;;;;;;0.60;0.60;;;;;;;27.69;46.37;100380.00;5036425;28;20199;-71
2023/06/07 10:49:37;;;;;;;0.60;0.60;;;;;;;27.70;44.63;100382.59;5071551;28;20705;-71
2023/06/07 10:52:05;;;;;;;0.60;0.60;;;;;;;27.80;45.27;100373.19;5071469;28;20219;-70
2023/06/07 10:54:35;;;;;;;0.70;0.70;;;;;;;27.81;44.82;100366.91;5071099;28;20271;-71
2023/06/07 10:57:02;;;;;;;0.80;0.80;;;;;;;27.41;44.33;100377.81;5071573;28;20194;-70
2023/06/07 10:59:30;;;;;;;0.70;0.70;;;;;;;27.18;44.32;100378.09;5036131;28;20199;-71
2023/06/07 11:02:21;;;;;;;0.70;0.70;;;;;;;27.58;45.01;100361.88;5052574;28;20202;-71
2023/06/07 11:04:56;;;;;;;0.95;0.95;;;;;;;27.75;43.37;100377.91;5036132;28;20668;-71
2023/06/07 11:07:25;;;;;;;0.90;0.90;;;;;;;27.76;43.74;100360.94;5071115;28;20673;-71
2023/06/07 11:10:27;;;;;;;0.60;0.60;;;;;;;27.87;43.34;100368.38;5071556;28;20213;-71
2023/06/07 11:12:59;;;;;;;0.60;0.60;;;;;;;27.51;42.95;100365.78;4989704;28;20197;-70
2023/06/07 11:15:30;;;;;;;0.50;0.50;;;;;;;27.63;42.56;100359.84;4989443;28;20276;-71
2023/06/07 11:17:58;;;;;;;0.70;0.70;;;;;;;27.77;41.53;100352.03;4989691;28;20202;-71
2023/06/07 11:20:51;;;;;;;0.70;0.70;;;;;;;27.97;41.43;100350.97;4973711;28;20272;-71
2023/06/07 11:23:22;;;;;;;0.80;0.80;;;;;;;28.12;42.53;100346.69;4989393;28;20263;-71
2023/06/07 11:25:51;;;;;;;0.63;0.63;;;;;;;27.73;41.97;100350.44;4992692;28;20276;-71
2023/06/07 11:28:22;;;;;;;0.70;0.70;;;;;;;27.70;41.72;100331.97;4993123;28;20205;-71